sensor_id;sensor_type;location;lat;lon;timestamp;P1;durP1;ratioP1;P2;durP2;ratioP2
35257;SDS011;21385;50.878;8.050;2023-05-10T00:02:02;0.35;;;0.35;;
35257;SDS011;21385;50.878;8.050;2023-05-10T00:04:27;0.40;;;0.40;;
35257;SDS011;21385;50.878;8.050;2023-05-10T00:06:53;0.57;;;0.28;;
35257;SDS011;21385;50.878;8.050;2023-05-10T00:09:19;0.20;;;0.20;;
35257;SDS011;21385;50.878;8.050;2023-05-10T00:11:45;0.80;;;0.30;;
35257;SDS011;21385;50.878;8.050;2023-05-10T00:14:11;1.42;;;0.32;;
35257;SDS011;21385;50.878;8.050;2023-05-10T00:16:36;0.30;;;0.30;;
35257;SDS011;21385;50.878;8.050;2023-05-10T00:19:02;1.65;;;0.30;;
35257;SDS011;21385;50.878;8.050;2023-05-10T00:21:28;0.10;;;0.10;;
35257;SDS011;21385;50.878;8.050;2023-05-10T00:23:53;0.40;;;0.35;;
35257;SDS011;21385;50.878;8.050;2023-05-10T00:26:19;1.23;;;0.52;;
35257;SDS011;21385;50.878;8.050;2023-05-10T00:28:45;0.20;;;0.20;;
35257;SDS011;21385;50.878;8.050;2023-05-10T00:31:11;0.20;;;0.20;;
35257;SDS011;21385;50.878;8.050;2023-05-10T00:33:36;0.32;;;0.32;;
35257;SDS011;21385;50.878;8.050;2023-05-10T00:36:02;0.20;;;0.20;;
35257;SDS011;21385;50.878;8.050;2023-05-10T00:38:28;0.28;;;0.28;;
35257;SDS011;21385;50.878;8.050;2023-05-10T00:40:53;0.73;;;0.50;;
35257;SDS011;21385;50.878;8.050;2023-05-10T00:43:19;2.08;;;0.60;;
35257;SDS011;21385;50.878;8.050;2023-05-10T00:45:45;0.47;;;0.47;;
35257;SDS011;21385;50.878;8.050;2023-05-10T00:48:11;0.32;;;0.32;;
35257;SDS011;21385;50.878;8.050;2023-05-10T00:50:37;0.47;;;0.47;;
35257;SDS011;21385;50.878;8.050;2023-05-10T00:53:04;0.75;;;0.57;;
35257;SDS011;21385;50.878;8.050;2023-05-10T00:55:30;0.52;;;0.28;;
35257;SDS011;21385;50.878;8.050;2023-05-10T00:57:56;0.35;;;0.35;;
35257;SDS011;21385;50.878;8.050;2023-05-10T01:00:22;2.08;;;0.55;;
35257;SDS011;21385;50.878;8.050;2023-05-10T01:02:47;0.20;;;0.20;;
35257;SDS011;21385;50.878;8.050;2023-05-10T01:05:14;0.30;;;0.30;;
35257;SDS011;21385;50.878;8.050;2023-05-10T01:07:40;0.50;;;0.50;;
35257;SDS011;21385;50.878;8.050;2023-05-10T01:10:06;0.28;;;0.28;;
35257;SDS011;21385;50.878;8.050;2023-05-10T01:12:33;0.40;;;0.40;;
35257;SDS011;21385;50.878;8.050;2023-05-10T01:15:03;0.50;;;0.50;;
35257;SDS011;21385;50.878;8.050;2023-05-10T01:17:30;0.55;;;0.50;;
35257;SDS011;21385;50.878;8.050;2023-05-10T01:19:56;0.40;;;0.40;;
35257;SDS011;21385;50.878;8.050;2023-05-10T01:33:06;0.70;;;0.55;;
35257;SDS011;21385;50.878;8.050;2023-05-10T01:35:45;2.05;;;0.80;;
35257;SDS011;21385;50.878;8.050;2023-05-10T01:46:43;0.30;;;0.30;;
35257;SDS011;21385;50.878;8.050;2023-05-10T01:51:46;0.32;;;0.32;;
35257;SDS011;21385;50.878;8.050;2023-05-10T01:54:16;1.27;;;0.50;;
35257;SDS011;21385;50.878;8.050;2023-05-10T01:56:45;0.20;;;0.20;;
35257;SDS011;21385;50.878;8.050;2023-05-10T01:59:15;0.60;;;0.52;;
35257;SDS011;21385;50.878;8.050;2023-05-10T02:01:43;0.40;;;0.40;;
35257;SDS011;21385;50.878;8.050;2023-05-10T02:04:11;0.32;;;0.30;;
35257;SDS011;21385;50.878;8.050;2023-05-10T02:06:41;0.50;;;0.47;;
35257;SDS011;21385;50.878;8.050;2023-05-10T02:09:08;0.35;;;0.35;;
35257;SDS011;21385;50.878;8.050;2023-05-10T02:11:37;0.30;;;0.30;;
35257;SDS011;21385;50.878;8.050;2023-05-10T02:14:05;0.35;;;0.35;;
35257;SDS011;21385;50.878;8.050;2023-05-10T02:16:34;0.40;;;0.40;;
35257;SDS011;21385;50.878;8.050;2023-05-10T02:19:01;0.52;;;0.50;;
35257;SDS011;21385;50.878;8.050;2023-05-10T02:21:27;0.40;;;0.40;;
35257;SDS011;21385;50.878;8.050;2023-05-10T02:23:54;0.40;;;0.40;;
35257;SDS011;21385;50.878;8.050;2023-05-10T02:26:22;0.52;;;0.43;;
35257;SDS011;21385;50.878;8.050;2023-05-10T02:28:49;0.77;;;0.65;;
35257;SDS011;21385;50.878;8.050;2023-05-10T02:31:16;0.60;;;0.60;;
35257;SDS011;21385;50.878;8.050;2023-05-10T02:33:43;0.68;;;0.60;;
35257;SDS011;21385;50.878;8.050;2023-05-10T02:36:10;1.00;;;0.98;;
35257;SDS011;21385;50.878;8.050;2023-05-10T02:38:37;0.68;;;0.55;;
35257;SDS011;21385;50.878;8.050;2023-05-10T02:41:04;0.95;;;0.88;;
35257;SDS011;21385;50.878;8.050;2023-05-10T02:43:32;1.08;;;0.80;;
35257;SDS011;21385;50.878;8.050;2023-05-10T02:45:58;1.00;;;0.75;;
35257;SDS011;21385;50.878;8.050;2023-05-10T02:48:24;1.55;;;0.95;;
35257;SDS011;21385;50.878;8.050;2023-05-10T02:50:50;0.52;;;0.52;;
35257;SDS011;21385;50.878;8.050;2023-05-10T02:53:21;0.60;;;0.60;;
35257;SDS011;21385;50.878;8.050;2023-05-10T02:55:49;0.80;;;0.73;;
35257;SDS011;21385;50.878;8.050;2023-05-10T02:58:17;1.20;;;1.00;;
35257;SDS011;21385;50.878;8.050;2023-05-10T03:00:44;1.33;;;0.90;;
35257;SDS011;21385;50.878;8.050;2023-05-10T03:03:11;0.63;;;0.63;;
35257;SDS011;21385;50.878;8.050;2023-05-10T03:05:36;1.63;;;1.48;;
35257;SDS011;21385;50.878;8.050;2023-05-10T03:08:02;0.98;;;0.77;;
35257;SDS011;21385;50.878;8.050;2023-05-10T03:10:29;1.50;;;1.25;;
35257;SDS011;21385;50.878;8.050;2023-05-10T03:13:07;0.73;;;0.73;;
35257;SDS011;21385;50.878;8.050;2023-05-10T03:21:20;3.03;;;1.77;;
35257;SDS011;21385;50.878;8.050;2023-05-10T03:26:48;2.22;;;1.25;;
35257;SDS011;21385;50.878;8.050;2023-05-10T03:29:15;1.38;;;1.27;;
35257;SDS011;21385;50.878;8.050;2023-05-10T03:31:42;2.25;;;1.50;;
35257;SDS011;21385;50.878;8.050;2023-05-10T03:34:07;2.08;;;1.88;;
35257;SDS011;21385;50.878;8.050;2023-05-10T03:36:33;1.42;;;1.33;;
35257;SDS011;21385;50.878;8.050;2023-05-10T03:38:59;1.80;;;1.70;;
35257;SDS011;21385;50.878;8.050;2023-05-10T03:41:24;3.03;;;1.52;;
35257;SDS011;21385;50.878;8.050;2023-05-10T03:43:50;2.60;;;2.40;;
35257;SDS011;21385;50.878;8.050;2023-05-10T03:46:16;2.72;;;2.53;;
35257;SDS011;21385;50.878;8.050;2023-05-10T03:48:42;2.35;;;2.13;;
35257;SDS011;21385;50.878;8.050;2023-05-10T03:51:07;4.32;;;2.53;;
35257;SDS011;21385;50.878;8.050;2023-05-10T03:53:33;2.85;;;2.58;;
35257;SDS011;21385;50.878;8.050;2023-05-10T03:55:58;2.78;;;2.42;;
35257;SDS011;21385;50.878;8.050;2023-05-10T03:58:24;2.33;;;2.00;;
35257;SDS011;21385;50.878;8.050;2023-05-10T04:00:50;2.55;;;2.35;;
35257;SDS011;21385;50.878;8.050;2023-05-10T04:03:16;10.35;;;2.95;;
35257;SDS011;21385;50.878;8.050;2023-05-10T04:05:42;3.55;;;2.70;;
35257;SDS011;21385;50.878;8.050;2023-05-10T04:08:08;4.05;;;2.55;;
35257;SDS011;21385;50.878;8.050;2023-05-10T04:10:34;4.15;;;3.17;;
35257;SDS011;21385;50.878;8.050;2023-05-10T04:12:59;3.15;;;2.85;;
35257;SDS011;21385;50.878;8.050;2023-05-10T04:15:25;4.53;;;3.35;;
35257;SDS011;21385;50.878;8.050;2023-05-10T04:17:51;3.00;;;2.63;;
35257;SDS011;21385;50.878;8.050;2023-05-10T04:20:16;2.33;;;2.03;;
35257;SDS011;21385;50.878;8.050;2023-05-10T04:22:42;2.55;;;2.05;;
35257;SDS011;21385;50.878;8.050;2023-05-10T04:25:08;2.13;;;1.88;;
35257;SDS011;21385;50.878;8.050;2023-05-10T04:27:34;1.80;;;1.63;;
35257;SDS011;21385;50.878;8.050;2023-05-10T04:29:59;2.88;;;2.05;;
35257;SDS011;21385;50.878;8.050;2023-05-10T04:32:25;2.55;;;1.55;;
35257;SDS011;21385;50.878;8.050;2023-05-10T04:34:51;1.33;;;1.23;;
35257;SDS011;21385;50.878;8.050;2023-05-10T04:37:16;1.33;;;1.20;;
35257;SDS011;21385;50.878;8.050;2023-05-10T04:39:42;1.40;;;1.30;;
35257;SDS011;21385;50.878;8.050;2023-05-10T04:42:08;1.50;;;1.40;;
35257;SDS011;21385;50.878;8.050;2023-05-10T04:44:34;0.60;;;0.60;;
35257;SDS011;21385;50.878;8.050;2023-05-10T04:47:00;0.63;;;0.63;;
35257;SDS011;21385;50.878;8.050;2023-05-10T04:49:27;0.50;;;0.50;;
35257;SDS011;21385;50.878;8.050;2023-05-10T04:51:53;0.70;;;0.63;;
35257;SDS011;21385;50.878;8.050;2023-05-10T04:54:18;0.77;;;0.70;;
35257;SDS011;21385;50.878;8.050;2023-05-10T04:56:44;1.23;;;1.10;;
35257;SDS011;21385;50.878;8.050;2023-05-10T04:59:10;1.15;;;1.05;;
35257;SDS011;21385;50.878;8.050;2023-05-10T05:01:35;0.85;;;0.85;;
35257;SDS011;21385;50.878;8.050;2023-05-10T05:04:01;1.25;;;1.15;;
35257;SDS011;21385;50.878;8.050;2023-05-10T05:06:27;2.00;;;1.80;;
35257;SDS011;21385;50.878;8.050;2023-05-10T05:08:52;1.63;;;1.20;;
35257;SDS011;21385;50.878;8.050;2023-05-10T05:11:18;1.60;;;1.50;;
35257;SDS011;21385;50.878;8.050;2023-05-10T05:13:43;1.58;;;1.38;;
35257;SDS011;21385;50.878;8.050;2023-05-10T05:16:09;1.20;;;1.10;;
35257;SDS011;21385;50.878;8.050;2023-05-10T05:18:36;2.38;;;1.20;;
35257;SDS011;21385;50.878;8.050;2023-05-10T05:21:01;1.10;;;0.90;;
35257;SDS011;21385;50.878;8.050;2023-05-10T05:23:27;1.05;;;0.93;;
35257;SDS011;21385;50.878;8.050;2023-05-10T05:25:53;1.10;;;0.95;;
35257;SDS011;21385;50.878;8.050;2023-05-10T05:28:19;2.75;;;1.38;;
35257;SDS011;21385;50.878;8.050;2023-05-10T05:30:45;1.52;;;1.13;;
35257;SDS011;21385;50.878;8.050;2023-05-10T05:33:11;0.60;;;0.60;;
35257;SDS011;21385;50.878;8.050;2023-05-10T05:35:38;1.10;;;0.90;;
35257;SDS011;21385;50.878;8.050;2023-05-10T05:38:03;2.15;;;1.25;;
35257;SDS011;21385;50.878;8.050;2023-05-10T05:40:29;1.52;;;1.10;;
35257;SDS011;21385;50.878;8.050;2023-05-10T05:42:54;1.30;;;0.98;;
35257;SDS011;21385;50.878;8.050;2023-05-10T05:45:20;0.95;;;0.95;;
35257;SDS011;21385;50.878;8.050;2023-05-10T05:47:46;1.00;;;0.93;;
35257;SDS011;21385;50.878;8.050;2023-05-10T05:50:12;3.67;;;1.77;;
35257;SDS011;21385;50.878;8.050;2023-05-10T05:52:37;0.98;;;0.98;;
35257;SDS011;21385;50.878;8.050;2023-05-10T05:55:03;1.92;;;1.75;;
35257;SDS011;21385;50.878;8.050;2023-05-10T05:57:29;3.92;;;1.48;;
35257;SDS011;21385;50.878;8.050;2023-05-10T05:59:55;2.33;;;1.73;;
35257;SDS011;21385;50.878;8.050;2023-05-10T06:02:21;2.08;;;1.63;;
35257;SDS011;21385;50.878;8.050;2023-05-10T06:04:46;1.65;;;1.55;;
35257;SDS011;21385;50.878;8.050;2023-05-10T06:07:12;1.85;;;1.70;;
35257;SDS011;21385;50.878;8.050;2023-05-10T06:09:37;3.88;;;2.67;;
35257;SDS011;21385;50.878;8.050;2023-05-10T06:12:03;3.60;;;2.33;;
35257;SDS011;21385;50.878;8.050;2023-05-10T06:14:28;2.25;;;2.05;;
35257;SDS011;21385;50.878;8.050;2023-05-10T06:16:54;1.48;;;1.38;;
35257;SDS011;21385;50.878;8.050;2023-05-10T06:19:20;3.10;;;1.83;;
35257;SDS011;21385;50.878;8.050;2023-05-10T06:21:45;2.30;;;2.10;;
35257;SDS011;21385;50.878;8.050;2023-05-10T06:24:11;2.22;;;1.65;;
35257;SDS011;21385;50.878;8.050;2023-05-10T06:26:36;1.75;;;1.65;;
35257;SDS011;21385;50.878;8.050;2023-05-10T06:29:02;2.55;;;2.05;;
35257;SDS011;21385;50.878;8.050;2023-05-10T06:31:27;4.25;;;2.15;;
35257;SDS011;21385;50.878;8.050;2023-05-10T06:33:53;2.13;;;1.92;;
35257;SDS011;21385;50.878;8.050;2023-05-10T06:36:19;2.13;;;1.95;;
35257;SDS011;21385;50.878;8.050;2023-05-10T06:38:44;6.72;;;2.38;;
35257;SDS011;21385;50.878;8.050;2023-05-10T06:41:10;5.53;;;2.15;;
35257;SDS011;21385;50.878;8.050;2023-05-10T06:43:35;2.15;;;1.95;;
35257;SDS011;21385;50.878;8.050;2023-05-10T06:46:04;2.03;;;1.88;;
35257;SDS011;21385;50.878;8.050;2023-05-10T06:48:30;10.75;;;2.92;;
35257;SDS011;21385;50.878;8.050;2023-05-10T06:50:56;2.90;;;2.35;;
35257;SDS011;21385;50.878;8.050;2023-05-10T06:53:21;2.50;;;2.00;;
35257;SDS011;21385;50.878;8.050;2023-05-10T06:55:47;2.38;;;2.20;;
35257;SDS011;21385;50.878;8.050;2023-05-10T06:58:14;3.38;;;3.00;;
35257;SDS011;21385;50.878;8.050;2023-05-10T07:00:39;2.13;;;1.80;;
35257;SDS011;21385;50.878;8.050;2023-05-10T07:03:05;4.43;;;2.67;;
35257;SDS011;21385;50.878;8.050;2023-05-10T07:05:31;2.42;;;1.98;;
35257;SDS011;21385;50.878;8.050;2023-05-10T07:07:57;2.67;;;1.77;;
35257;SDS011;21385;50.878;8.050;2023-05-10T07:10:22;3.97;;;2.30;;
35257;SDS011;21385;50.878;8.050;2023-05-10T07:12:48;5.18;;;1.90;;
35257;SDS011;21385;50.878;8.050;2023-05-10T07:15:13;2.65;;;2.17;;
35257;SDS011;21385;50.878;8.050;2023-05-10T07:17:40;8.10;;;2.40;;
35257;SDS011;21385;50.878;8.050;2023-05-10T07:20:06;11.98;;;2.45;;
35257;SDS011;21385;50.878;8.050;2023-05-10T07:22:32;3.55;;;2.25;;
35257;SDS011;21385;50.878;8.050;2023-05-10T07:24:58;9.63;;;2.50;;
35257;SDS011;21385;50.878;8.050;2023-05-10T07:27:24;2.88;;;2.20;;
35257;SDS011;21385;50.878;8.050;2023-05-10T07:29:50;4.03;;;2.58;;
35257;SDS011;21385;50.878;8.050;2023-05-10T07:32:15;2.92;;;2.20;;
35257;SDS011;21385;50.878;8.050;2023-05-10T07:34:41;3.97;;;2.58;;
35257;SDS011;21385;50.878;8.050;2023-05-10T07:37:06;3.53;;;2.97;;
35257;SDS011;21385;50.878;8.050;2023-05-10T07:39:32;3.33;;;2.50;;
35257;SDS011;21385;50.878;8.050;2023-05-10T07:41:58;22.92;;;3.38;;
35257;SDS011;21385;50.878;8.050;2023-05-10T07:44:23;3.67;;;2.88;;
35257;SDS011;21385;50.878;8.050;2023-05-10T07:46:49;2.90;;;2.22;;
35257;SDS011;21385;50.878;8.050;2023-05-10T07:49:15;5.82;;;2.22;;
35257;SDS011;21385;50.878;8.050;2023-05-10T07:51:40;3.47;;;1.92;;
35257;SDS011;21385;50.878;8.050;2023-05-10T07:54:07;6.47;;;2.45;;
35257;SDS011;21385;50.878;8.050;2023-05-10T07:56:33;2.17;;;2.05;;
35257;SDS011;21385;50.878;8.050;2023-05-10T07:58:59;3.00;;;2.45;;
35257;SDS011;21385;50.878;8.050;2023-05-10T08:01:25;7.78;;;3.47;;
35257;SDS011;21385;50.878;8.050;2023-05-10T08:03:51;4.18;;;3.00;;
35257;SDS011;21385;50.878;8.050;2023-05-10T08:06:18;4.18;;;3.63;;
35257;SDS011;21385;50.878;8.050;2023-05-10T08:08:48;5.30;;;3.70;;
35257;SDS011;21385;50.878;8.050;2023-05-10T08:11:18;4.60;;;4.15;;
35257;SDS011;21385;50.878;8.050;2023-05-10T08:13:45;8.77;;;4.28;;
35257;SDS011;21385;50.878;8.050;2023-05-10T08:16:11;5.95;;;5.35;;
35257;SDS011;21385;50.878;8.050;2023-05-10T08:18:37;8.02;;;6.53;;
35257;SDS011;21385;50.878;8.050;2023-05-10T08:21:03;13.32;;;7.70;;
35257;SDS011;21385;50.878;8.050;2023-05-10T08:23:29;15.63;;;7.85;;
35257;SDS011;21385;50.878;8.050;2023-05-10T08:25:55;8.15;;;7.10;;
35257;SDS011;21385;50.878;8.050;2023-05-10T08:28:20;9.77;;;8.77;;
35257;SDS011;21385;50.878;8.050;2023-05-10T08:30:46;10.77;;;7.95;;
35257;SDS011;21385;50.878;8.050;2023-05-10T08:33:11;10.38;;;8.38;;
35257;SDS011;21385;50.878;8.050;2023-05-10T08:35:37;13.30;;;8.45;;
35257;SDS011;21385;50.878;8.050;2023-05-10T08:38:03;10.88;;;8.23;;
35257;SDS011;21385;50.878;8.050;2023-05-10T08:40:28;10.95;;;9.75;;
35257;SDS011;21385;50.878;8.050;2023-05-10T08:42:55;24.75;;;10.40;;
35257;SDS011;21385;50.878;8.050;2023-05-10T08:45:36;17.17;;;9.43;;
35257;SDS011;21385;50.878;8.050;2023-05-10T08:48:06;12.80;;;9.35;;
35257;SDS011;21385;50.878;8.050;2023-05-10T08:50:37;11.20;;;9.68;;
35257;SDS011;21385;50.878;8.050;2023-05-10T08:53:04;13.27;;;8.70;;
35257;SDS011;21385;50.878;8.050;2023-05-10T08:55:32;15.48;;;9.20;;
35257;SDS011;21385;50.878;8.050;2023-05-10T08:57:58;10.90;;;7.38;;
35257;SDS011;21385;50.878;8.050;2023-05-10T09:00:25;11.55;;;9.27;;
35257;SDS011;21385;50.878;8.050;2023-05-10T09:02:51;13.40;;;6.97;;
35257;SDS011;21385;50.878;8.050;2023-05-10T09:05:18;9.93;;;8.27;;
35257;SDS011;21385;50.878;8.050;2023-05-10T09:07:44;8.55;;;7.32;;
35257;SDS011;21385;50.878;8.050;2023-05-10T09:10:10;12.05;;;8.88;;
35257;SDS011;21385;50.878;8.050;2023-05-10T09:12:36;12.85;;;7.95;;
35257;SDS011;21385;50.878;8.050;2023-05-10T09:15:03;8.95;;;8.05;;
35257;SDS011;21385;50.878;8.050;2023-05-10T09:17:30;9.35;;;6.80;;
35257;SDS011;21385;50.878;8.050;2023-05-10T09:19:57;13.98;;;7.85;;
35257;SDS011;21385;50.878;8.050;2023-05-10T09:22:27;14.77;;;7.13;;
35257;SDS011;21385;50.878;8.050;2023-05-10T09:25:08;7.68;;;6.07;;
35257;SDS011;21385;50.878;8.050;2023-05-10T09:27:36;11.23;;;6.53;;
35257;SDS011;21385;50.878;8.050;2023-05-10T09:30:03;9.77;;;6.45;;
35257;SDS011;21385;50.878;8.050;2023-05-10T09:35:05;8.48;;;6.38;;
35257;SDS011;21385;50.878;8.050;2023-05-10T09:37:42;8.27;;;6.47;;
35257;SDS011;21385;50.878;8.050;2023-05-10T09:40:13;8.80;;;6.65;;
35257;SDS011;21385;50.878;8.050;2023-05-10T09:42:40;6.40;;;5.75;;
35257;SDS011;21385;50.878;8.050;2023-05-10T09:45:07;9.35;;;6.65;;
35257;SDS011;21385;50.878;8.050;2023-05-10T09:47:36;12.07;;;7.40;;
35257;SDS011;21385;50.878;8.050;2023-05-10T09:50:03;7.38;;;6.15;;
35257;SDS011;21385;50.878;8.050;2023-05-10T09:55:26;7.38;;;5.55;;
35257;SDS011;21385;50.878;8.050;2023-05-10T09:58:03;5.85;;;4.97;;
35257;SDS011;21385;50.878;8.050;2023-05-10T10:00:34;6.57;;;5.80;;
35257;SDS011;21385;50.878;8.050;2023-05-10T10:03:20;7.47;;;6.30;;
35257;SDS011;21385;50.878;8.050;2023-05-10T10:05:46;7.97;;;6.18;;
35257;SDS011;21385;50.878;8.050;2023-05-10T10:08:13;8.48;;;5.28;;
35257;SDS011;21385;50.878;8.050;2023-05-10T10:10:40;5.80;;;5.20;;
35257;SDS011;21385;50.878;8.050;2023-05-10T10:13:07;5.90;;;5.28;;
35257;SDS011;21385;50.878;8.050;2023-05-10T10:15:36;5.43;;;4.65;;
35257;SDS011;21385;50.878;8.050;2023-05-10T10:18:02;9.52;;;5.18;;
35257;SDS011;21385;50.878;8.050;2023-05-10T10:20:31;5.40;;;4.22;;
35257;SDS011;21385;50.878;8.050;2023-05-10T10:22:57;6.43;;;4.70;;
35257;SDS011;21385;50.878;8.050;2023-05-10T10:25:22;4.78;;;4.13;;
35257;SDS011;21385;50.878;8.050;2023-05-10T10:35:36;4.05;;;2.90;;
35257;SDS011;21385;50.878;8.050;2023-05-10T10:38:02;6.30;;;3.95;;
35257;SDS011;21385;50.878;8.050;2023-05-10T10:40:28;4.72;;;4.05;;
35257;SDS011;21385;50.878;8.050;2023-05-10T10:42:58;8.47;;;3.50;;
35257;SDS011;21385;50.878;8.050;2023-05-10T10:48:47;2.25;;;2.00;;
35257;SDS011;21385;50.878;8.050;2023-05-10T10:51:13;3.40;;;2.88;;
35257;SDS011;21385;50.878;8.050;2023-05-10T10:53:39;2.58;;;2.35;;
35257;SDS011;21385;50.878;8.050;2023-05-10T10:56:10;6.63;;;2.90;;
35257;SDS011;21385;50.878;8.050;2023-05-10T10:58:39;4.50;;;2.50;;
35257;SDS011;21385;50.878;8.050;2023-05-10T11:01:13;2.67;;;2.47;;
35257;SDS011;21385;50.878;8.050;2023-05-10T11:03:39;1.90;;;1.80;;
35257;SDS011;21385;50.878;8.050;2023-05-10T11:06:04;2.10;;;1.90;;
35257;SDS011;21385;50.878;8.050;2023-05-10T11:08:31;4.18;;;1.98;;
35257;SDS011;21385;50.878;8.050;2023-05-10T11:13:31;2.30;;;2.10;;
35257;SDS011;21385;50.878;8.050;2023-05-10T11:18:40;1.95;;;1.70;;
35257;SDS011;21385;50.878;8.050;2023-05-10T11:21:07;7.75;;;2.65;;
35257;SDS011;21385;50.878;8.050;2023-05-10T11:26:34;4.82;;;2.10;;
35257;SDS011;21385;50.878;8.050;2023-05-10T11:29:00;3.35;;;1.30;;
35257;SDS011;21385;50.878;8.050;2023-05-10T11:31:28;2.15;;;1.38;;
35257;SDS011;21385;50.878;8.050;2023-05-10T11:33:55;2.08;;;1.38;;
35257;SDS011;21385;50.878;8.050;2023-05-10T11:36:28;0.88;;;0.80;;
35257;SDS011;21385;50.878;8.050;2023-05-10T11:38:57;4.20;;;1.23;;
35257;SDS011;21385;50.878;8.050;2023-05-10T11:41:23;7.10;;;1.38;;
35257;SDS011;21385;50.878;8.050;2023-05-10T11:43:50;1.10;;;1.00;;
35257;SDS011;21385;50.878;8.050;2023-05-10T11:46:18;1.33;;;0.93;;
35257;SDS011;21385;50.878;8.050;2023-05-10T11:48:53;0.82;;;0.70;;
35257;SDS011;21385;50.878;8.050;2023-05-10T11:51:26;0.98;;;0.85;;
35257;SDS011;21385;50.878;8.050;2023-05-10T11:53:53;2.30;;;1.10;;
35257;SDS011;21385;50.878;8.050;2023-05-10T11:56:20;2.65;;;1.27;;
35257;SDS011;21385;50.878;8.050;2023-05-10T11:58:51;1.67;;;1.20;;
35257;SDS011;21385;50.878;8.050;2023-05-10T12:01:21;1.40;;;0.93;;
35257;SDS011;21385;50.878;8.050;2023-05-10T12:03:48;1.00;;;0.98;;
35257;SDS011;21385;50.878;8.050;2023-05-10T12:06:14;3.72;;;1.15;;
35257;SDS011;21385;50.878;8.050;2023-05-10T12:08:44;1.38;;;0.82;;
35257;SDS011;21385;50.878;8.050;2023-05-10T12:11:11;1.43;;;1.10;;
35257;SDS011;21385;50.878;8.050;2023-05-10T12:13:41;3.55;;;1.40;;
35257;SDS011;21385;50.878;8.050;2023-05-10T12:18:44;1.00;;;0.90;;
35257;SDS011;21385;50.878;8.050;2023-05-10T12:21:13;1.27;;;1.17;;
35257;SDS011;21385;50.878;8.050;2023-05-10T12:23:40;1.42;;;1.15;;
35257;SDS011;21385;50.878;8.050;2023-05-10T12:26:06;1.10;;;1.00;;
35257;SDS011;21385;50.878;8.050;2023-05-10T12:28:35;1.27;;;1.17;;
35257;SDS011;21385;50.878;8.050;2023-05-10T12:31:00;1.60;;;1.50;;
35257;SDS011;21385;50.878;8.050;2023-05-10T12:33:26;5.38;;;1.52;;
35257;SDS011;21385;50.878;8.050;2023-05-10T12:35:52;0.80;;;0.80;;
35257;SDS011;21385;50.878;8.050;2023-05-10T12:38:33;5.13;;;1.40;;
35257;SDS011;21385;50.878;8.050;2023-05-10T12:41:10;1.92;;;1.25;;
35257;SDS011;21385;50.878;8.050;2023-05-10T12:43:41;1.45;;;1.35;;
35257;SDS011;21385;50.878;8.050;2023-05-10T12:46:13;1.85;;;1.20;;
35257;SDS011;21385;50.878;8.050;2023-05-10T12:48:40;1.10;;;1.05;;
35257;SDS011;21385;50.878;8.050;2023-05-10T12:51:06;0.93;;;0.75;;
35257;SDS011;21385;50.878;8.050;2023-05-10T12:53:37;1.83;;;1.40;;
35257;SDS011;21385;50.878;8.050;2023-05-10T12:56:06;1.77;;;1.40;;
35257;SDS011;21385;50.878;8.050;2023-05-10T12:58:32;4.00;;;2.25;;
35257;SDS011;21385;50.878;8.050;2023-05-10T13:00:57;2.72;;;1.42;;
35257;SDS011;21385;50.878;8.050;2023-05-10T13:03:24;1.33;;;1.23;;
35257;SDS011;21385;50.878;8.050;2023-05-10T13:05:49;1.63;;;1.10;;
35257;SDS011;21385;50.878;8.050;2023-05-10T13:08:15;1.35;;;1.25;;
35257;SDS011;21385;50.878;8.050;2023-05-10T13:10:40;1.33;;;1.13;;
35257;SDS011;21385;50.878;8.050;2023-05-10T13:13:06;2.17;;;1.20;;
35257;SDS011;21385;50.878;8.050;2023-05-10T13:15:34;3.05;;;2.03;;
35257;SDS011;21385;50.878;8.050;2023-05-10T13:18:00;2.55;;;1.48;;
35257;SDS011;21385;50.878;8.050;2023-05-10T13:20:26;1.73;;;1.52;;
35257;SDS011;21385;50.878;8.050;2023-05-10T13:22:52;1.55;;;1.40;;
35257;SDS011;21385;50.878;8.050;2023-05-10T13:25:18;4.53;;;1.55;;
35257;SDS011;21385;50.878;8.050;2023-05-10T13:27:44;1.48;;;1.23;;
35257;SDS011;21385;50.878;8.050;2023-05-10T13:30:10;2.72;;;1.55;;
35257;SDS011;21385;50.878;8.050;2023-05-10T13:32:36;1.98;;;1.73;;
35257;SDS011;21385;50.878;8.050;2023-05-10T13:35:02;1.33;;;1.23;;
35257;SDS011;21385;50.878;8.050;2023-05-10T13:37:29;1.83;;;1.40;;
35257;SDS011;21385;50.878;8.050;2023-05-10T13:39:55;3.20;;;1.83;;
35257;SDS011;21385;50.878;8.050;2023-05-10T13:42:21;1.20;;;1.10;;
35257;SDS011;21385;50.878;8.050;2023-05-10T13:44:48;1.75;;;1.65;;
35257;SDS011;21385;50.878;8.050;2023-05-10T13:47:14;4.45;;;1.38;;
35257;SDS011;21385;50.878;8.050;2023-05-10T13:49:40;5.70;;;1.83;;
35257;SDS011;21385;50.878;8.050;2023-05-10T13:52:06;2.30;;;1.55;;
35257;SDS011;21385;50.878;8.050;2023-05-10T13:54:34;1.58;;;1.38;;
35257;SDS011;21385;50.878;8.050;2023-05-10T13:57:03;0.85;;;0.85;;
35257;SDS011;21385;50.878;8.050;2023-05-10T13:59:29;2.22;;;1.50;;
35257;SDS011;21385;50.878;8.050;2023-05-10T14:01:56;3.33;;;1.88;;
35257;SDS011;21385;50.878;8.050;2023-05-10T14:04:23;3.60;;;2.15;;
35257;SDS011;21385;50.878;8.050;2023-05-10T14:06:49;6.28;;;2.00;;
35257;SDS011;21385;50.878;8.050;2023-05-10T14:09:14;3.40;;;1.80;;
35257;SDS011;21385;50.878;8.050;2023-05-10T14:11:40;2.15;;;1.83;;
35257;SDS011;21385;50.878;8.050;2023-05-10T14:14:08;2.47;;;2.13;;
35257;SDS011;21385;50.878;8.050;2023-05-10T14:16:34;3.65;;;2.67;;
35257;SDS011;21385;50.878;8.050;2023-05-10T14:19:00;4.53;;;2.38;;
35257;SDS011;21385;50.878;8.050;2023-05-10T14:21:26;8.75;;;2.95;;
35257;SDS011;21385;50.878;8.050;2023-05-10T14:23:53;2.33;;;2.13;;
35257;SDS011;21385;50.878;8.050;2023-05-10T14:26:19;3.22;;;2.50;;
35257;SDS011;21385;50.878;8.050;2023-05-10T14:28:45;5.28;;;3.35;;
35257;SDS011;21385;50.878;8.050;2023-05-10T14:31:11;3.33;;;3.03;;
35257;SDS011;21385;50.878;8.050;2023-05-10T14:33:37;2.78;;;2.58;;
35257;SDS011;21385;50.878;8.050;2023-05-10T14:36:02;3.58;;;3.17;;
35257;SDS011;21385;50.878;8.050;2023-05-10T14:38:28;4.45;;;3.38;;
35257;SDS011;21385;50.878;8.050;2023-05-10T14:40:54;15.13;;;3.63;;
35257;SDS011;21385;50.878;8.050;2023-05-10T14:43:20;2.88;;;2.65;;
35257;SDS011;21385;50.878;8.050;2023-05-10T14:45:45;4.25;;;3.47;;
35257;SDS011;21385;50.878;8.050;2023-05-10T14:48:12;3.35;;;3.05;;
35257;SDS011;21385;50.878;8.050;2023-05-10T14:50:42;6.10;;;2.70;;
35257;SDS011;21385;50.878;8.050;2023-05-10T14:53:08;4.00;;;3.38;;
35257;SDS011;21385;50.878;8.050;2023-05-10T14:55:34;3.97;;;3.38;;
35257;SDS011;21385;50.878;8.050;2023-05-10T14:58:00;4.95;;;3.45;;
35257;SDS011;21385;50.878;8.050;2023-05-10T15:00:27;3.45;;;3.15;;
35257;SDS011;21385;50.878;8.050;2023-05-10T15:02:53;3.95;;;2.97;;
35257;SDS011;21385;50.878;8.050;2023-05-10T15:05:19;3.80;;;3.45;;
35257;SDS011;21385;50.878;8.050;2023-05-10T15:07:45;4.80;;;2.97;;
35257;SDS011;21385;50.878;8.050;2023-05-10T15:10:10;3.65;;;2.70;;
35257;SDS011;21385;50.878;8.050;2023-05-10T15:12:36;4.90;;;3.17;;
35257;SDS011;21385;50.878;8.050;2023-05-10T15:15:02;2.80;;;2.45;;
35257;SDS011;21385;50.878;8.050;2023-05-10T15:17:28;3.53;;;2.72;;
35257;SDS011;21385;50.878;8.050;2023-05-10T15:19:55;4.18;;;2.65;;
35257;SDS011;21385;50.878;8.050;2023-05-10T15:22:20;3.08;;;2.53;;
35257;SDS011;21385;50.878;8.050;2023-05-10T15:24:46;2.42;;;2.22;;
35257;SDS011;21385;50.878;8.050;2023-05-10T15:27:12;3.72;;;2.65;;
35257;SDS011;21385;50.878;8.050;2023-05-10T15:29:37;5.43;;;3.28;;
35257;SDS011;21385;50.878;8.050;2023-05-10T15:32:03;8.07;;;2.80;;
35257;SDS011;21385;50.878;8.050;2023-05-10T15:34:29;5.30;;;2.72;;
35257;SDS011;21385;50.878;8.050;2023-05-10T15:36:54;3.50;;;2.80;;
35257;SDS011;21385;50.878;8.050;2023-05-10T15:39:20;2.50;;;2.25;;
35257;SDS011;21385;50.878;8.050;2023-05-10T15:41:45;2.58;;;2.22;;